Time,TemperatureF,DewpointF,PressureIn,WindDirection,WindDirectionDegrees,WindSpeedMPH,WindSpeedGustMPH,Humidity,HourlyPrecipIn,Conditions,Clouds,dailyrainin,SoftwareType,DateUTC
2013-03-08 00:02:00,29.7,26.0,30.05,East,90,0.0,0.0,86,0.00,,,0.00,WUHU216HW,2013-03-08 08:02:00,
2013-03-08 00:07:00,29.7,26.0,30.05,East,90,0.0,0.0,86,0.00,,,0.00,WUHU216HW,2013-03-08 08:07:00,
2013-03-08 00:12:00,29.5,25.8,30.05,East,90,0.0,0.0,86,0.00,,,0.00,WUHU216HW,2013-03-08 08:12:00,
2013-03-08 00:18:00,29.5,25.6,30.05,East,90,0.0,0.0,85,0.00,,,0.00,WUHU216HW,2013-03-08 08:18:00,
2013-03-08 00:23:00,29.3,25.7,30.05,East,90,0.0,0.0,86,0.00,,,0.00,WUHU216HW,2013-03-08 08:23:00,
2013-03-08 00:28:00,29.2,25.5,30.05,East,90,0.0,0.0,86,0.00,,,0.00,WUHU216HW,2013-03-08 08:28:00,
2013-03-08 00:33:00,29.2,25.5,30.05,East,90,0.0,0.0,86,0.00,,,0.00,WUHU216HW,2013-03-08 08:33:00,
2013-03-08 00:38:00,29.2,25.5,30.05,East,90,0.0,0.0,86,0.00,,,0.00,WUHU216HW,2013-03-08 08:38:00,
2013-03-08 00:43:00,29.0,25.3,30.05,East,90,0.0,0.0,86,0.00,,,0.00,WUHU216HW,2013-03-08 08:43:00,
2013-03-08 00:49:00,29.0,25.3,30.05,East,90,0.0,0.0,86,0.00,,,0.00,WUHU216HW,2013-03-08 08:49:00,
2013-03-08 00:54:00,28.8,25.1,30.05,East,90,0.0,0.0,86,0.00,,,0.00,WUHU216HW,2013-03-08 08:54:00,
2013-03-08 00:59:00,28.8,25.1,30.05,East,90,0.0,0.0,86,0.00,,,0.00,WUHU216HW,2013-03-08 08:59:00,
2013-03-08 01:04:00,28.6,24.9,30.05,East,90,0.0,0.0,86,0.00,,,0.00,WUHU216HW,2013-03-08 09:04:00,
2013-03-08 01:09:00,28.6,24.9,30.05,East,90,0.0,0.0,86,0.00,,,0.00,WUHU216HW,2013-03-08 09:09:00,
2013-03-08 01:14:00,28.4,24.8,30.05,East,90,0.0,0.0,86,0.00,,,0.00,WUHU216HW,2013-03-08 09:14:00,
2013-03-08 01:19:00,28.4,24.8,30.05,East,90,0.0,0.0,86,0.00,,,0.00,WUHU216HW,2013-03-08 09:19:00,
2013-03-08 01:25:00,28.4,24.8,30.05,East,90,0.0,0.0,86,0.00,,,0.00,WUHU216HW,2013-03-08 09:25:00,
2013-03-08 01:30:00,28.4,24.8,30.05,East,90,0.0,0.0,86,0.00,,,0.00,WUHU216HW,2013-03-08 09:30:00,
2013-03-08 01:35:00,28.6,24.9,30.05,East,90,0.0,0.0,86,0.00,,,0.00,WUHU216HW,2013-03-08 09:35:00,
2013-03-08 01:40:00,28.8,25.1,30.04,East,90,0.0,0.0,86,0.00,,,0.00,WUHU216HW,2013-03-08 09:40:00,
2013-03-08 01:45:00,29.0,25.6,30.04,East,90,0.0,0.0,87,0.00,,,0.00,WUHU216HW,2013-03-08 09:45:00,
2013-03-08 01:50:00,29.2,25.5,30.04,East,90,0.0,0.4,86,0.00,,,0.00,WUHU216HW,2013-03-08 09:50:00,
2013-03-08 01:56:00,29.5,25.8,30.04,East,90,0.2,2.2,86,0.00,,,0.00,WUHU216HW,2013-03-08 09:56:00,
2013-03-08 02:01:00,30.1,26.6,30.04,East,90,1.1,2.2,87,0.00,,,0.00,WUHU216HW,2013-03-08 10:01:00,
2013-03-08 02:06:00,30.4,27.6,30.04,East,90,1.3,1.8,89,0.00,,,0.00,WUHU216HW,2013-03-08 10:06:00,
2013-03-08 02:11:00,30.6,27.8,30.04,East,90,2.7,2.9,89,0.00,,,0.00,WUHU216HW,2013-03-08 10:11:00,
2013-03-08 02:16:00,30.6,27.8,30.04,East,90,1.1,4.0,89,0.00,,,0.00,WUHU216HW,2013-03-08 10:16:00,
2013-03-08 02:21:00,30.8,28.0,30.04,East,90,0.9,4.0,89,0.00,,,0.00,WUHU216HW,2013-03-08 10:21:00,
2013-03-08 02:26:00,30.8,28.0,30.04,East,90,1.1,2.9,89,0.00,,,0.00,WUHU216HW,2013-03-08 10:26:00,
2013-03-08 02:32:00,30.6,27.8,30.04,East,90,1.8,4.0,89,0.00,,,0.00,WUHU216HW,2013-03-08 10:32:00,
2013-03-08 02:37:00,30.8,28.3,30.04,East,90,0.2,4.0,90,0.00,,,0.00,WUHU216HW,2013-03-08 10:37:00,
2013-03-08 02:42:00,30.8,28.3,30.04,East,90,0.0,1.3,90,0.00,,,0.00,WUHU216HW,2013-03-08 10:42:00,
2013-03-08 02:47:00,31.0,28.4,30.04,East,90,0.0,1.3,90,0.00,,,0.00,WUHU216HW,2013-03-08 10:47:00,
2013-03-08 02:52:00,31.0,28.4,30.04,East,90,0.0,0.0,90,0.00,,,0.00,WUHU216HW,2013-03-08 10:52:00,
2013-03-08 02:57:00,31.1,28.4,30.04,East,90,0.0,0.0,89,0.00,,,0.00,WUHU216HW,2013-03-08 10:57:00,
2013-03-08 03:03:00,31.3,28.5,30.04,East,90,0.0,0.0,89,0.00,,,0.00,WUHU216HW,2013-03-08 11:03:00,
2013-03-08 03:08:00,31.3,28.5,30.04,East,90,0.0,0.0,89,0.00,,,0.00,WUHU216HW,2013-03-08 11:08:00,
2013-03-08 03:13:00,31.3,28.5,30.04,East,90,0.4,1.3,89,0.00,,,0.00,WUHU216HW,2013-03-08 11:13:00,
2013-03-08 03:18:00,31.3,28.5,30.04,East,90,0.0,1.3,89,0.00,,,0.00,WUHU216HW,2013-03-08 11:18:00,
2013-03-08 03:23:00,31.3,28.5,30.04,East,90,1.6,2.0,89,0.00,,,0.00,WUHU216HW,2013-03-08 11:23:00,
2013-03-08 03:28:00,31.3,28.5,30.04,East,90,0.0,2.0,89,0.00,,,0.00,WUHU216HW,2013-03-08 11:28:00,
2013-03-08 03:33:00,31.3,28.5,30.04,East,90,1.6,2.5,89,0.00,,,0.00,WUHU216HW,2013-03-08 11:33:00,
2013-03-08 03:39:00,31.3,28.5,30.04,East,90,0.4,3.4,89,0.00,,,0.00,WUHU216HW,2013-03-08 11:39:00,
2013-03-08 03:44:00,31.3,28.8,30.04,East,90,0.4,3.4,90,0.00,,,0.00,WUHU216HW,2013-03-08 11:44:00,
2013-03-08 03:49:00,31.3,28.8,30.04,East,90,0.9,3.4,90,0.00,,,0.00,WUHU216HW,2013-03-08 11:49:00,
2013-03-08 03:54:00,31.3,28.8,30.04,East,90,1.3,3.1,90,0.00,,,0.00,WUHU216HW,2013-03-08 11:54:00,
2013-03-08 03:59:00,31.1,28.6,30.04,East,90,2.2,3.1,90,0.00,,,0.00,WUHU216HW,2013-03-08 11:59:00,
2013-03-08 04:04:00,31.1,28.6,30.04,East,90,1.1,2.5,90,0.00,,,0.00,WUHU216HW,2013-03-08 12:04:00,
2013-03-08 04:09:00,31.1,28.6,30.04,East,90,0.0,1.6,90,0.00,,,0.00,WUHU216HW,2013-03-08 12:09:00,
2013-03-08 04:15:00,31.3,28.8,30.04,East,90,0.4,1.1,90,0.00,,,0.00,WUHU216HW,2013-03-08 12:15:00,
2013-03-08 04:20:00,31.3,28.8,30.04,East,90,0.9,1.1,90,0.00,,,0.00,WUHU216HW,2013-03-08 12:20:00,
2013-03-08 04:25:00,31.3,28.8,30.04,East,90,3.4,3.4,90,0.00,,,0.00,WUHU216HW,2013-03-08 12:25:00,
2013-03-08 04:30:00,31.3,28.8,30.04,East,90,0.4,3.4,90,0.00,,,0.00,WUHU216HW,2013-03-08 12:30:00,
2013-03-08 04:35:00,31.3,28.8,30.04,East,90,0.4,3.4,90,0.00,,,0.00,WUHU216HW,2013-03-08 12:35:00,
2013-03-08 04:40:00,31.0,28.4,30.04,East,90,2.2,6.9,90,0.00,,,0.00,WUHU216HW,2013-03-08 12:40:00,
2013-03-08 04:46:00,30.8,28.5,30.04,East,90,1.3,6.9,91,0.00,,,0.00,WUHU216HW,2013-03-08 12:46:00,
2013-03-08 04:51:00,30.8,28.5,30.04,East,90,3.4,4.0,91,0.00,,,0.00,WUHU216HW,2013-03-08 12:51:00,
2013-03-08 04:56:00,30.6,28.4,30.04,East,90,1.8,4.0,91,0.00,,,0.00,WUHU216HW,2013-03-08 12:56:00,
2013-03-08 05:01:00,30.6,28.4,30.04,East,90,2.5,4.0,91,0.00,,,0.00,WUHU216HW,2013-03-08 13:01:00,
2013-03-08 05:06:00,30.6,28.4,30.04,East,90,0.0,5.1,91,0.00,,,0.00,WUHU216HW,2013-03-08 13:06:00,
2013-03-08 05:11:00,30.6,28.4,30.04,East,90,4.3,5.1,91,0.00,,,0.00,WUHU216HW,2013-03-08 13:11:00,
2013-03-08 05:16:00,30.6,28.4,30.04,East,90,1.8,5.1,91,0.00,,,0.00,WUHU216HW,2013-03-08 13:16:00,
2013-03-08 05:22:00,30.6,28.4,30.04,East,90,1.8,3.8,91,0.00,,,0.00,WUHU216HW,2013-03-08 13:22:00,
2013-03-08 05:27:00,30.6,28.4,30.04,East,90,4.0,4.3,91,0.00,,,0.00,WUHU216HW,2013-03-08 13:27:00,
2013-03-08 05:32:00,30.4,28.2,30.04,East,90,2.7,5.4,91,0.00,,,0.00,WUHU216HW,2013-03-08 13:32:00,
2013-03-08 05:37:00,30.4,28.2,30.04,East,90,0.0,5.4,91,0.00,,,0.00,WUHU216HW,2013-03-08 13:37:00,
2013-03-08 05:42:00,30.6,28.4,30.04,East,90,1.1,3.8,91,0.00,,,0.00,WUHU216HW,2013-03-08 13:42:00,
2013-03-08 05:47:00,30.6,28.4,30.04,East,90,4.3,4.3,91,0.00,,,0.00,WUHU216HW,2013-03-08 13:47:00,
2013-03-08 05:52:00,30.6,28.4,30.04,East,90,0.9,4.3,91,0.00,,,0.00,WUHU216HW,2013-03-08 13:52:00,
2013-03-08 05:58:00,30.6,28.4,30.04,East,90,0.0,2.9,91,0.00,,,0.00,WUHU216HW,2013-03-08 13:58:00,
2013-03-08 06:03:00,30.6,28.4,30.04,East,90,2.7,4.0,91,0.00,,,0.00,WUHU216HW,2013-03-08 14:03:00,
2013-03-08 06:08:00,30.6,28.4,30.04,East,90,1.1,4.0,91,0.00,,,0.00,WUHU216HW,2013-03-08 14:08:00,
2013-03-08 06:13:00,30.6,28.4,30.04,East,90,1.8,3.6,91,0.00,,,0.00,WUHU216HW,2013-03-08 14:13:00,
2013-03-08 06:18:00,30.8,28.5,30.04,East,90,4.7,4.7,91,0.00,,,0.00,WUHU216HW,2013-03-08 14:18:00,
2013-03-08 06:23:00,30.8,28.5,30.04,East,90,1.1,4.7,91,0.00,,,0.00,WUHU216HW,2013-03-08 14:23:00,
2013-03-08 06:29:00,30.8,28.5,30.04,East,90,0.2,3.4,91,0.00,,,0.00,WUHU216HW,2013-03-08 14:29:00,
2013-03-08 06:34:00,31.0,28.7,30.04,East,90,2.2,6.0,91,0.00,,,0.00,WUHU216HW,2013-03-08 14:34:00,
2013-03-08 06:39:00,31.0,28.7,30.04,East,90,1.1,6.0,91,0.00,,,0.00,WUHU216HW,2013-03-08 14:39:00,
2013-03-08 06:44:00,31.0,28.7,30.05,East,90,0.9,3.4,91,0.00,,,0.00,WUHU216HW,2013-03-08 14:44:00,
2013-03-08 06:49:00,31.0,28.7,30.04,East,90,1.8,3.4,91,0.00,,,0.00,WUHU216HW,2013-03-08 14:49:00,
2013-03-08 06:54:00,31.1,28.9,30.05,East,90,1.6,4.7,91,0.00,,,0.00,WUHU216HW,2013-03-08 14:54:00,
2013-03-08 06:59:00,31.0,28.7,30.04,East,90,0.7,4.7,91,0.00,,,0.00,WUHU216HW,2013-03-08 14:59:00,
2013-03-08 07:05:00,31.1,28.9,30.05,East,90,0.9,3.1,91,0.00,,,0.00,WUHU216HW,2013-03-08 15:05:00,
2013-03-08 07:10:00,31.1,28.9,30.05,East,90,0.4,1.8,91,0.00,,,0.00,WUHU216HW,2013-03-08 15:10:00,
2013-03-08 07:15:00,31.1,28.9,30.05,East,90,2.7,2.9,91,0.00,,,0.00,WUHU216HW,2013-03-08 15:15:00,
2013-03-08 07:20:00,31.1,28.9,30.05,East,90,2.2,3.4,91,0.00,,,0.00,WUHU216HW,2013-03-08 15:20:00,
2013-03-08 07:25:00,31.1,28.9,30.05,East,90,4.9,4.9,91,0.00,,,0.00,WUHU216HW,2013-03-08 15:25:00,
2013-03-08 07:30:00,31.1,28.9,30.05,East,90,1.8,4.9,91,0.00,,,0.00,WUHU216HW,2013-03-08 15:30:00,
2013-03-08 07:36:00,31.1,28.9,30.05,East,90,0.9,3.4,91,0.00,,,0.00,WUHU216HW,2013-03-08 15:36:00,
2013-03-08 07:41:00,31.1,28.9,30.05,East,90,3.8,4.7,91,0.00,,,0.00,WUHU216HW,2013-03-08 15:41:00,
2013-03-08 07:46:00,31.1,28.9,30.05,East,90,2.5,4.7,91,0.00,,,0.00,WUHU216HW,2013-03-08 15:46:00,
2013-03-08 07:51:00,31.1,28.9,30.05,East,90,2.7,4.5,91,0.00,,,0.00,WUHU216HW,2013-03-08 15:51:00,
2013-03-08 07:56:00,31.3,29.1,30.05,East,90,2.2,4.3,91,0.00,,,0.00,WUHU216HW,2013-03-08 15:56:00,
2013-03-08 08:01:00,31.3,29.4,30.05,East,90,2.5,4.3,92,0.00,,,0.00,WUHU216HW,2013-03-08 16:01:00,
2013-03-08 08:07:00,31.3,29.1,30.05,East,90,3.1,4.0,91,0.00,,,0.00,WUHU216HW,2013-03-08 16:07:00,
2013-03-08 08:12:00,31.3,29.1,30.05,East,90,2.2,4.7,91,0.00,,,0.00,WUHU216HW,2013-03-08 16:12:00,
2013-03-08 08:17:00,31.3,29.1,30.06,East,90,2.7,5.4,91,0.00,,,0.00,WUHU216HW,2013-03-08 16:17:00,
2013-03-08 08:22:00,31.3,29.1,30.06,East,90,2.2,5.4,91,0.00,,,0.00,WUHU216HW,2013-03-08 16:22:00,
2013-03-08 08:27:00,31.3,29.1,30.06,East,90,3.8,4.0,91,0.00,,,0.00,WUHU216HW,2013-03-08 16:27:00,
2013-03-08 08:32:00,31.5,29.3,30.06,East,90,0.9,4.3,91,0.00,,,0.00,WUHU216HW,2013-03-08 16:32:00,
2013-03-08 08:37:00,31.5,29.3,30.06,East,90,1.1,4.3,91,0.00,,,0.00,WUHU216HW,2013-03-08 16:37:00,
2013-03-08 08:43:00,31.7,29.4,30.06,East,90,0.4,4.0,91,0.00,,,0.00,WUHU216HW,2013-03-08 16:43:00,
2013-03-08 08:48:00,31.7,29.4,30.06,East,90,0.4,3.4,91,0.00,,,0.00,WUHU216HW,2013-03-08 16:48:00,
2013-03-08 08:53:00,31.9,29.6,30.06,East,90,3.4,3.4,91,0.00,,,0.00,WUHU216HW,2013-03-08 16:53:00,
2013-03-08 08:58:00,31.9,29.6,30.06,East,90,1.8,3.4,91,0.00,,,0.00,WUHU216HW,2013-03-08 16:58:00,
2013-03-08 09:03:00,31.9,29.6,30.06,East,90,1.1,3.8,91,0.00,,,0.00,WUHU216HW,2013-03-08 17:03:00,
2013-03-08 09:08:00,32.0,30.1,30.06,East,90,0.0,2.2,92,0.00,,,0.00,WUHU216HW,2013-03-08 17:08:00,
2013-03-08 09:13:00,32.4,30.3,30.06,East,90,0.2,2.9,92,0.00,,,0.00,WUHU216HW,2013-03-08 17:13:00,
2013-03-08 09:19:00,32.6,30.5,30.06,East,90,0.4,2.9,92,0.00,,,0.00,WUHU216HW,2013-03-08 17:19:00,
2013-03-08 09:24:00,32.8,30.4,30.06,East,90,0.0,2.2,91,0.00,,,0.00,WUHU216HW,2013-03-08 17:24:00,
2013-03-08 09:29:00,32.8,30.4,30.06,East,90,2.5,3.1,91,0.00,,,0.00,WUHU216HW,2013-03-08 17:29:00,
2013-03-08 09:34:00,32.8,30.4,30.06,East,90,0.9,3.1,91,0.00,,,0.00,WUHU216HW,2013-03-08 17:34:00,
2013-03-08 09:39:00,32.8,30.4,30.06,East,90,0.0,2.5,91,0.00,,,0.00,WUHU216HW,2013-03-08 17:39:00,
2013-03-08 09:44:00,32.9,30.6,30.06,ENE,68,0.2,3.1,91,0.00,,,0.00,WUHU216HW,2013-03-08 17:44:00,
2013-03-08 09:49:00,32.9,30.3,30.07,NNE,23,1.1,4.5,90,0.00,,,0.00,WUHU216HW,2013-03-08 17:49:00,
2013-03-08 09:55:00,32.9,30.3,30.06,NE,45,0.0,4.9,90,0.00,,,0.00,WUHU216HW,2013-03-08 17:55:00,
2013-03-08 10:00:00,33.1,30.5,30.07,NE,45,0.0,4.9,90,0.00,,,0.00,WUHU216HW,2013-03-08 18:00:00,
2013-03-08 10:05:00,33.3,30.7,30.07,NNE,23,4.7,4.7,90,0.00,,,0.00,WUHU216HW,2013-03-08 18:05:00,
2013-03-08 10:10:00,33.3,30.7,30.07,NNE,23,3.8,4.7,90,0.00,,,0.00,WUHU216HW,2013-03-08 18:10:00,
2013-03-08 10:15:00,33.5,30.8,30.07,NW,315,0.0,4.7,90,0.00,,,0.00,WUHU216HW,2013-03-08 18:15:00,
2013-03-08 10:20:00,33.7,31.0,30.07,NNW,338,0.0,2.5,90,0.00,,,0.00,WUHU216HW,2013-03-08 18:20:00,
2013-03-08 10:25:00,33.8,31.1,30.07,North,0,0.9,4.0,90,0.00,,,0.00,WUHU216HW,2013-03-08 18:25:00,
2013-03-08 10:31:00,34.0,31.3,30.07,NNE,23,3.4,4.0,90,0.00,,,0.00,WUHU216HW,2013-03-08 18:31:00,
2013-03-08 10:36:00,34.0,31.1,30.07,NE,45,1.1,3.4,89,0.00,,,0.00,WUHU216HW,2013-03-08 18:36:00,
2013-03-08 10:41:00,34.0,31.1,30.07,ENE,68,0.0,2.9,89,0.00,,,0.00,WUHU216HW,2013-03-08 18:41:00,
2013-03-08 10:46:00,34.2,31.2,30.07,North,0,0.0,1.8,89,0.00,,,0.00,WUHU216HW,2013-03-08 18:46:00,
2013-03-08 10:51:00,34.4,31.4,30.07,East,90,0.4,1.1,89,0.00,,,0.00,WUHU216HW,2013-03-08 18:51:00,
2013-03-08 10:56:00,34.7,31.8,30.07,NNE,23,4.3,4.3,89,0.00,,,0.00,WUHU216HW,2013-03-08 18:56:00,
2013-03-08 11:02:00,34.9,31.7,30.06,East,90,1.6,4.7,88,0.00,,,0.00,WUHU216HW,2013-03-08 19:02:00,
2013-03-08 11:07:00,34.7,31.5,30.07,East,90,0.0,4.7,88,0.00,,,0.00,WUHU216HW,2013-03-08 19:07:00,
2013-03-08 11:12:00,34.9,31.7,30.07,North,0,1.6,1.8,88,0.00,,,0.00,WUHU216HW,2013-03-08 19:12:00,
2013-03-08 11:17:00,34.9,31.7,30.07,ENE,68,2.2,5.4,88,0.00,,,0.00,WUHU216HW,2013-03-08 19:17:00,
2013-03-08 11:22:00,34.9,31.3,30.07,ESE,113,0.0,5.4,87,0.00,,,0.00,WUHU216HW,2013-03-08 19:22:00,
2013-03-08 11:27:00,35.3,31.7,30.06,NNE,23,1.6,4.3,87,0.00,,,0.00,WUHU216HW,2013-03-08 19:27:00,
2013-03-08 11:33:00,35.3,31.7,30.06,North,0,0.4,6.3,87,0.00,,,0.00,WUHU216HW,2013-03-08 19:33:00,
2013-03-08 11:38:00,35.5,31.9,30.06,NE,45,0.4,6.3,87,0.00,,,0.00,WUHU216HW,2013-03-08 19:38:00,
2013-03-08 11:43:00,35.6,31.8,30.06,NE,45,1.1,2.9,86,0.00,,,0.00,WUHU216HW,2013-03-08 19:43:00,
2013-03-08 11:48:00,36.0,32.4,30.06,West,270,1.6,4.0,87,0.00,,,0.00,WUHU216HW,2013-03-08 19:48:00,
2013-03-08 11:53:00,36.4,32.8,30.06,North,0,0.4,4.0,87,0.00,,,0.00,WUHU216HW,2013-03-08 19:53:00,
2013-03-08 11:58:00,36.4,32.8,30.06,NNE,23,0.4,3.1,87,0.00,,,0.00,WUHU216HW,2013-03-08 19:58:00,
2013-03-08 12:03:00,36.4,32.5,30.06,ENE,68,2.0,4.7,86,0.00,,,0.00,WUHU216HW,2013-03-08 20:03:00,
2013-03-08 12:09:00,36.4,32.5,30.06,ENE,68,2.5,4.7,86,0.00,,,0.00,WUHU216HW,2013-03-08 20:09:00,
2013-03-08 12:14:00,36.5,32.7,30.06,East,90,1.6,2.5,86,0.00,,,0.00,WUHU216HW,2013-03-08 20:14:00,
2013-03-08 12:19:00,36.7,32.9,30.05,NNE,23,2.0,2.9,86,0.00,,,0.00,WUHU216HW,2013-03-08 20:19:00,
2013-03-08 12:24:00,36.9,33.0,30.05,WNW,293,3.6,3.6,86,0.00,,,0.00,WUHU216HW,2013-03-08 20:24:00,
2013-03-08 12:29:00,37.4,33.6,30.05,West,270,0.9,3.6,86,0.00,,,0.00,WUHU216HW,2013-03-08 20:29:00,
2013-03-08 12:34:00,37.6,33.5,30.05,NE,45,1.8,3.4,85,0.00,,,0.00,WUHU216HW,2013-03-08 20:34:00,
2013-03-08 12:39:00,37.4,33.0,30.05,NNE,23,0.4,6.3,84,0.00,,,0.00,WUHU216HW,2013-03-08 20:39:00,
2013-03-08 12:45:00,37.4,33.0,30.05,NE,45,0.0,6.3,84,0.00,,,0.00,WUHU216HW,2013-03-08 20:45:00,
2013-03-08 12:50:00,37.4,33.0,30.05,NE,45,3.4,3.6,84,0.00,,,0.00,WUHU216HW,2013-03-08 20:50:00,
2013-03-08 12:55:00,37.6,33.2,30.04,WNW,293,0.7,3.6,84,0.00,,,0.00,WUHU216HW,2013-03-08 20:55:00,
2013-03-08 13:00:00,37.8,33.4,30.04,ESE,113,0.2,3.4,84,0.00,,,0.00,WUHU216HW,2013-03-08 21:00:00,
2013-03-08 13:05:00,38.0,33.6,30.04,NE,45,2.2,2.5,84,0.00,,,0.00,WUHU216HW,2013-03-08 21:05:00,
2013-03-08 13:10:00,38.3,33.9,30.04,North,0,2.0,4.3,84,0.00,,,0.00,WUHU216HW,2013-03-08 21:10:00,
2013-03-08 13:15:00,38.7,34.0,30.05,North,0,0.4,4.3,83,0.00,,,0.00,WUHU216HW,2013-03-08 21:15:00,
2013-03-08 13:21:00,38.7,34.0,30.05,NNE,23,0.7,3.4,83,0.00,,,0.00,WUHU216HW,2013-03-08 21:21:00,
2013-03-08 13:26:00,38.9,34.2,30.05,WSW,248,1.1,3.4,83,0.00,,,0.00,WUHU216HW,2013-03-08 21:26:00,
2013-03-08 13:31:00,39.6,34.8,30.04,WSW,248,1.1,3.6,83,0.00,,,0.00,WUHU216HW,2013-03-08 21:31:00,
2013-03-08 13:36:00,40.0,34.9,30.04,West,270,1.1,3.6,82,0.00,,,0.00,WUHU216HW,2013-03-08 21:36:00,
2013-03-08 13:41:00,40.3,35.2,30.04,NNW,338,0.4,2.5,82,0.00,,,0.00,WUHU216HW,2013-03-08 21:41:00,
2013-03-08 13:46:00,40.5,35.4,30.04,NW,315,0.9,3.1,82,0.00,,,0.00,WUHU216HW,2013-03-08 21:46:00,
2013-03-08 13:52:00,40.5,35.4,30.04,WNW,293,0.4,3.1,82,0.00,,,0.00,WUHU216HW,2013-03-08 21:52:00,
2013-03-08 13:57:00,40.7,35.6,30.04,NNW,338,0.0,2.9,82,0.00,,,0.00,WUHU216HW,2013-03-08 21:57:00,
2013-03-08 14:02:00,40.9,35.7,30.04,NNW,338,0.0,2.9,82,0.00,,,0.00,WUHU216HW,2013-03-08 22:02:00,
2013-03-08 14:07:00,41.0,35.9,30.04,NE,45,1.1,2.5,82,0.00,,,0.00,WUHU216HW,2013-03-08 22:07:00,
2013-03-08 14:12:00,41.0,35.6,30.04,North,0,0.0,2.9,81,0.00,,,0.00,WUHU216HW,2013-03-08 22:12:00,
2013-03-08 14:17:00,40.7,35.3,30.04,North,0,2.5,6.7,81,0.00,,,0.00,WUHU216HW,2013-03-08 22:17:00,
2013-03-08 14:23:00,40.1,34.7,30.04,East,90,1.1,6.7,81,0.00,,,0.00,WUHU216HW,2013-03-08 22:23:00,
2013-03-08 14:28:00,40.0,34.3,30.04,ENE,68,2.5,4.5,80,0.00,,,0.00,WUHU216HW,2013-03-08 22:28:00,
2013-03-08 14:33:00,39.8,34.1,30.04,ESE,113,0.9,4.5,80,0.00,,,0.00,WUHU216HW,2013-03-08 22:33:00,
2013-03-08 14:38:00,39.8,34.1,30.04,NNE,23,3.6,4.3,80,0.00,,,0.00,WUHU216HW,2013-03-08 22:38:00,
2013-03-08 14:43:00,39.8,34.1,30.05,ENE,68,2.5,3.8,80,0.00,,,0.00,WUHU216HW,2013-03-08 22:43:00,
2013-03-08 14:48:00,39.6,34.0,30.04,ENE,68,3.4,3.4,80,0.00,,,0.00,WUHU216HW,2013-03-08 22:48:00,
2013-03-08 14:53:00,39.6,34.0,30.04,North,0,0.0,3.4,80,0.00,,,0.00,WUHU216HW,2013-03-08 22:53:00,
2013-03-08 14:59:00,40.0,34.6,30.04,ENE,68,1.1,3.4,81,0.00,,,0.00,WUHU216HW,2013-03-08 22:59:00,
2013-03-08 15:04:00,40.7,35.3,30.04,NNE,23,2.7,2.9,81,0.00,,,0.00,WUHU216HW,2013-03-08 23:04:00,
2013-03-08 15:09:00,40.5,35.1,30.04,NNE,23,3.4,4.0,81,0.00,,,0.00,WUHU216HW,2013-03-08 23:09:00,
2013-03-08 15:14:00,40.5,34.8,30.04,NNE,23,3.4,4.5,80,0.00,,,0.00,WUHU216HW,2013-03-08 23:14:00,
2013-03-08 15:19:00,40.3,34.7,30.04,ENE,68,1.3,4.5,80,0.00,,,0.00,WUHU216HW,2013-03-08 23:19:00,
2013-03-08 15:24:00,40.3,34.7,30.04,ENE,68,1.3,3.4,80,0.00,,,0.00,WUHU216HW,2013-03-08 23:24:00,
2013-03-08 15:29:00,40.5,35.1,30.04,NNE,23,0.0,2.9,81,0.00,,,0.00,WUHU216HW,2013-03-08 23:29:00,
2013-03-08 15:35:00,40.9,35.5,30.04,WNW,293,0.7,3.6,81,0.00,,,0.00,WUHU216HW,2013-03-08 23:35:00,
2013-03-08 15:40:00,40.9,35.1,30.04,West,270,1.1,3.6,80,0.00,,,0.00,WUHU216HW,2013-03-08 23:40:00,
2013-03-08 15:45:00,41.0,35.3,30.04,West,270,0.0,2.5,80,0.00,,,0.00,WUHU216HW,2013-03-08 23:45:00,
2013-03-08 15:50:00,41.0,35.3,30.04,NW,315,0.0,2.2,80,0.00,,,0.00,WUHU216HW,2013-03-08 23:50:00,
2013-03-08 15:55:00,41.0,34.9,30.04,WNW,293,0.7,1.8,79,0.00,,,0.00,WUHU216HW,2013-03-08 23:55:00,
2013-03-08 16:00:00,40.9,34.8,30.04,NW,315,0.0,3.1,79,0.00,,,0.00,WUHU216HW,2013-03-09 00:00:00,
2013-03-08 16:05:00,41.0,34.9,30.04,WNW,293,1.1,3.1,79,0.00,,,0.00,WUHU216HW,2013-03-09 00:05:00,
2013-03-08 16:11:00,41.0,34.9,30.04,WNW,293,0.0,2.7,79,0.00,,,0.00,WUHU216HW,2013-03-09 00:11:00,
2013-03-08 16:16:00,41.0,34.9,30.04,WNW,293,0.2,1.3,79,0.00,,,0.00,WUHU216HW,2013-03-09 00:16:00,
2013-03-08 16:21:00,41.0,34.9,30.04,East,90,0.0,1.6,79,0.00,,,0.00,WUHU216HW,2013-03-09 00:21:00,
2013-03-08 16:26:00,41.0,34.9,30.04,WNW,293,2.2,2.5,79,0.00,,,0.00,WUHU216HW,2013-03-09 00:26:00,
2013-03-08 16:31:00,41.0,34.9,30.04,WNW,293,1.1,2.5,79,0.00,,,0.00,WUHU216HW,2013-03-09 00:31:00,
2013-03-08 16:36:00,41.0,34.9,30.04,WNW,293,0.2,2.2,79,0.00,,,0.00,WUHU216HW,2013-03-09 00:36:00,
2013-03-08 16:41:00,41.0,34.9,30.04,NNW,338,0.0,1.8,79,0.00,,,0.00,WUHU216HW,2013-03-09 00:41:00,
2013-03-08 16:46:00,40.7,34.7,30.04,WNW,293,0.0,1.3,79,0.00,,,0.00,WUHU216HW,2013-03-09 00:46:00,
2013-03-08 16:51:00,40.9,34.8,30.04,West,270,0.0,3.6,79,0.00,,,0.00,WUHU216HW,2013-03-09 00:51:00,
2013-03-08 16:56:00,40.9,34.8,30.04,WNW,293,1.1,3.6,79,0.00,,,0.00,WUHU216HW,2013-03-09 00:56:00,
2013-03-08 17:01:00,40.7,34.7,30.04,WNW,293,0.0,1.6,79,0.00,,,0.00,WUHU216HW,2013-03-09 01:01:00,
2013-03-08 17:06:00,40.7,34.7,30.04,WNW,293,0.0,1.3,79,0.00,,,0.00,WUHU216HW,2013-03-09 01:06:00,
2013-03-08 17:11:00,40.7,34.7,30.04,WNW,293,0.0,0.4,79,0.00,,,0.00,WUHU216HW,2013-03-09 01:11:00,
2013-03-08 17:12:00,40.7,34.7,30.04,WNW,293,0.0,0.4,79,0.00,,,0.00,WUHU216HW,2013-03-09 01:12:00,
2013-03-08 17:18:00,40.3,34.3,30.04,WNW,293,0.0,0.9,79,0.00,,,0.00,WUHU216HW,2013-03-09 01:18:00,
2013-03-08 17:23:00,40.1,34.1,30.04,WNW,293,0.0,0.9,79,0.00,,,0.00,WUHU216HW,2013-03-09 01:23:00,
2013-03-08 17:28:00,40.0,33.9,30.04,WNW,293,0.0,0.0,79,0.00,,,0.00,WUHU216HW,2013-03-09 01:28:00,
2013-03-08 17:33:00,39.6,33.7,30.04,WNW,293,0.0,0.0,79,0.00,,,0.00,WUHU216HW,2013-03-09 01:33:00,
2013-03-08 17:38:00,39.2,33.3,30.04,WNW,293,0.0,0.0,79,0.00,,,0.00,WUHU216HW,2013-03-09 01:38:00,
2013-03-08 17:43:00,39.1,33.1,30.04,WNW,293,0.0,0.0,79,0.00,,,0.00,WUHU216HW,2013-03-09 01:43:00,
2013-03-08 17:49:00,38.7,32.8,30.04,WNW,293,0.0,0.0,79,0.00,,,0.00,WUHU216HW,2013-03-09 01:49:00,
2013-03-08 17:54:00,38.3,32.8,30.05,WNW,293,0.0,0.0,80,0.00,,,0.00,WUHU216HW,2013-03-09 01:54:00,
2013-03-08 17:59:00,38.0,32.4,30.05,WNW,293,0.0,0.0,80,0.00,,,0.00,WUHU216HW,2013-03-09 01:59:00,
2013-03-08 18:04:00,37.6,32.0,30.05,WNW,293,0.0,0.0,80,0.00,,,0.00,WUHU216HW,2013-03-09 02:04:00,
2013-03-08 18:09:00,37.3,31.7,30.05,WNW,293,0.0,0.0,80,0.00,,,0.00,WUHU216HW,2013-03-09 02:09:00,
2013-03-08 18:14:00,36.9,31.3,30.05,WNW,293,0.0,0.0,80,0.00,,,0.00,WUHU216HW,2013-03-09 02:14:00,
2013-03-08 18:19:00,36.5,31.0,30.05,WNW,293,0.0,0.0,80,0.00,,,0.00,WUHU216HW,2013-03-09 02:19:00,
2013-03-08 18:25:00,36.4,30.8,30.05,WNW,293,0.0,0.0,80,0.00,,,0.00,WUHU216HW,2013-03-09 02:25:00,
2013-03-08 18:30:00,36.0,30.7,30.05,WNW,293,0.0,0.0,81,0.00,,,0.00,WUHU216HW,2013-03-09 02:30:00,
2013-03-08 18:35:00,35.6,30.3,30.06,WNW,293,0.0,0.0,81,0.00,,,0.00,WUHU216HW,2013-03-09 02:35:00,
2013-03-08 18:40:00,35.3,30.0,30.06,WNW,293,0.0,0.0,81,0.00,,,0.00,WUHU216HW,2013-03-09 02:40:00,
2013-03-08 18:41:00,35.3,30.0,30.06,WNW,293,0.0,0.0,81,0.00,,,0.00,WUHU216HW,2013-03-09 02:41:00,
2013-03-08 18:46:00,34.9,29.9,30.06,WNW,293,0.0,0.0,82,0.00,,,0.00,WUHU216HW,2013-03-09 02:46:00,
2013-03-08 18:51:00,34.9,29.9,30.06,WNW,293,0.0,0.0,82,0.00,,,0.00,WUHU216HW,2013-03-09 02:51:00,
2013-03-08 18:56:00,34.6,29.5,30.06,WNW,293,0.0,0.0,82,0.00,,,0.00,WUHU216HW,2013-03-09 02:56:00,
2013-03-08 19:01:00,34.2,29.2,30.06,WNW,293,0.0,0.9,82,0.00,,,0.00,WUHU216HW,2013-03-09 03:01:00,
2013-03-08 19:06:00,34.2,29.2,30.07,WNW,293,0.0,0.9,82,0.00,,,0.00,WUHU216HW,2013-03-09 03:06:00,
2013-03-08 19:11:00,33.8,28.5,30.07,WNW,293,0.0,0.0,81,0.00,,,0.00,WUHU216HW,2013-03-09 03:11:00,
2013-03-08 19:16:00,33.5,28.5,30.07,WNW,293,0.0,0.0,82,0.00,,,0.00,WUHU216HW,2013-03-09 03:16:00,
2013-03-08 19:21:00,33.3,28.4,30.07,WNW,293,0.0,0.0,82,0.00,,,0.00,WUHU216HW,2013-03-09 03:21:00,
2013-03-08 19:26:00,33.1,28.2,30.07,WNW,293,0.0,0.0,82,0.00,,,0.00,WUHU216HW,2013-03-09 03:26:00,
2013-03-08 19:31:00,32.9,28.4,30.07,WNW,293,0.0,0.0,83,0.00,,,0.00,WUHU216HW,2013-03-09 03:31:00,
2013-03-08 19:36:00,32.8,28.2,30.07,WNW,293,0.0,0.0,83,0.00,,,0.00,WUHU216HW,2013-03-09 03:36:00,
2013-03-08 19:41:00,32.6,28.0,30.08,WNW,293,0.4,0.9,83,0.00,,,0.00,WUHU216HW,2013-03-09 03:41:00,
2013-03-08 19:46:00,32.4,27.8,30.08,West,270,0.0,0.9,83,0.00,,,0.00,WUHU216HW,2013-03-09 03:46:00,
2013-03-08 19:51:00,32.2,27.6,30.08,West,270,0.0,0.4,83,0.00,,,0.00,WUHU216HW,2013-03-09 03:51:00,
2013-03-08 19:56:00,32.0,27.6,30.08,West,270,0.0,0.0,83,0.00,,,0.00,WUHU216HW,2013-03-09 03:56:00,
2013-03-08 20:01:00,32.0,27.6,30.08,West,270,0.0,0.2,83,0.00,,,0.00,WUHU216HW,2013-03-09 04:01:00,
2013-03-08 20:06:00,31.9,27.4,30.08,West,270,0.0,0.2,83,0.00,,,0.00,WUHU216HW,2013-03-09 04:06:00,
2013-03-08 20:11:00,31.7,27.2,30.09,West,270,0.0,0.0,83,0.00,,,0.00,WUHU216HW,2013-03-09 04:11:00,
2013-03-08 20:16:00,31.7,27.2,30.09,West,270,0.0,0.0,83,0.00,,,0.00,WUHU216HW,2013-03-09 04:16:00,
2013-03-08 20:21:00,31.3,26.8,30.09,West,270,0.0,0.0,83,0.00,,,0.00,WUHU216HW,2013-03-09 04:21:00,
2013-03-08 20:26:00,31.3,27.1,30.09,West,270,0.0,0.0,84,0.00,,,0.00,WUHU216HW,2013-03-09 04:26:00,
2013-03-08 20:31:00,31.1,26.9,30.09,West,270,0.0,0.0,84,0.00,,,0.00,WUHU216HW,2013-03-09 04:31:00,
2013-03-08 20:36:00,31.1,26.9,30.09,West,270,0.0,0.0,84,0.00,,,0.00,WUHU216HW,2013-03-09 04:36:00,
2013-03-08 20:41:00,31.0,26.7,30.10,West,270,0.0,0.0,84,0.00,,,0.00,WUHU216HW,2013-03-09 04:41:00,
2013-03-08 20:46:00,30.8,26.6,30.09,West,270,0.0,0.0,84,0.00,,,0.00,WUHU216HW,2013-03-09 04:46:00,
2013-03-08 20:51:00,30.6,26.4,30.10,West,270,0.0,0.0,84,0.00,,,0.00,WUHU216HW,2013-03-09 04:51:00,
2013-03-08 20:56:00,30.6,26.4,30.10,West,270,0.0,0.0,84,0.00,,,0.00,WUHU216HW,2013-03-09 04:56:00,
2013-03-08 21:00:00,30.6,26.4,30.10,West,270,0.0,0.0,84,0.00,,,0.00,WUHU216HW,2013-03-09 05:00:00,
2013-03-08 21:05:00,30.4,26.5,30.10,West,270,0.0,0.0,85,0.00,,,0.00,WUHU216HW,2013-03-09 05:05:00,
2013-03-08 21:10:00,30.2,26.3,30.10,West,270,0.0,0.0,85,0.00,,,0.00,WUHU216HW,2013-03-09 05:10:00,
2013-03-08 21:15:00,30.2,26.3,30.10,West,270,0.0,0.0,85,0.00,,,0.00,WUHU216HW,2013-03-09 05:15:00,
2013-03-08 21:20:00,30.1,26.1,30.10,West,270,0.0,0.0,85,0.00,,,0.00,WUHU216HW,2013-03-09 05:20:00,
2013-03-08 21:25:00,30.1,26.1,30.10,West,270,0.0,0.0,85,0.00,,,0.00,WUHU216HW,2013-03-09 05:25:00,
2013-03-08 21:30:00,29.9,25.9,30.10,West,270,0.7,0.7,85,0.00,,,0.00,WUHU216HW,2013-03-09 05:30:00,
2013-03-08 21:35:00,29.9,25.9,30.10,West,270,0.0,0.9,85,0.00,,,0.00,WUHU216HW,2013-03-09 05:35:00,
2013-03-08 21:40:00,29.9,25.9,30.10,West,270,0.2,0.9,85,0.00,,,0.00,WUHU216HW,2013-03-09 05:40:00,
2013-03-08 21:45:00,29.9,25.9,30.10,West,270,0.0,0.4,85,0.00,,,0.00,WUHU216HW,2013-03-09 05:45:00,
2013-03-08 21:50:00,29.7,26.0,30.10,West,270,0.0,0.4,86,0.00,,,0.00,WUHU216HW,2013-03-09 05:50:00,
2013-03-08 21:55:00,29.7,26.0,30.10,West,270,0.0,0.0,86,0.00,,,0.00,WUHU216HW,2013-03-09 05:55:00,
2013-03-08 22:00:00,29.9,26.2,30.10,West,270,0.0,0.0,86,0.00,,,0.00,WUHU216HW,2013-03-09 06:00:00,
2013-03-08 22:05:00,29.7,26.0,30.10,West,270,0.0,0.0,86,0.00,,,0.00,WUHU216HW,2013-03-09 06:05:00,
2013-03-08 22:10:00,29.7,26.0,30.10,West,270,0.0,0.0,86,0.00,,,0.00,WUHU216HW,2013-03-09 06:10:00,
2013-03-08 22:15:00,29.5,25.8,30.10,West,270,0.0,0.0,86,0.00,,,0.00,WUHU216HW,2013-03-09 06:15:00,
2013-03-08 22:20:00,29.5,25.8,30.10,West,270,0.0,0.0,86,0.00,,,0.00,WUHU216HW,2013-03-09 06:20:00,
2013-03-08 22:25:00,29.3,25.7,30.10,West,270,0.0,0.4,86,0.00,,,0.00,WUHU216HW,2013-03-09 06:25:00,
2013-03-08 22:30:00,29.3,25.7,30.10,West,270,0.0,0.7,86,0.00,,,0.00,WUHU216HW,2013-03-09 06:30:00,
2013-03-08 22:35:00,29.2,25.5,30.11,West,270,0.0,0.7,86,0.00,,,0.00,WUHU216HW,2013-03-09 06:35:00,
2013-03-08 22:40:00,29.2,25.5,30.10,West,270,0.0,0.2,86,0.00,,,0.00,WUHU216HW,2013-03-09 06:40:00,
2013-03-08 22:45:00,29.2,25.5,30.11,West,270,0.0,0.2,86,0.00,,,0.00,WUHU216HW,2013-03-09 06:45:00,
2013-03-08 22:50:00,29.3,25.9,30.11,West,270,0.0,0.0,87,0.00,,,0.00,WUHU216HW,2013-03-09 06:50:00,
2013-03-08 22:55:00,29.3,25.9,30.11,West,270,0.0,0.9,87,0.00,,,0.00,WUHU216HW,2013-03-09 06:55:00,
2013-03-08 23:00:00,29.5,25.8,30.11,West,270,0.0,0.9,86,0.00,,,0.00,WUHU216HW,2013-03-09 07:00:00,
2013-03-08 23:05:00,29.5,25.8,30.11,West,270,0.0,1.1,86,0.00,,,0.00,WUHU216HW,2013-03-09 07:05:00,
2013-03-08 23:10:00,29.7,26.0,30.11,West,270,0.0,1.1,86,0.00,,,0.00,WUHU216HW,2013-03-09 07:10:00,
2013-03-08 23:15:00,29.7,26.0,30.11,West,270,0.0,0.0,86,0.00,,,0.00,WUHU216HW,2013-03-09 07:15:00,
2013-03-08 23:20:00,29.9,26.5,30.11,West,270,0.0,0.4,87,0.00,,,0.00,WUHU216HW,2013-03-09 07:20:00,
2013-03-08 23:25:00,29.9,26.5,30.11,West,270,0.0,0.4,87,0.00,,,0.00,WUHU216HW,2013-03-09 07:25:00,
2013-03-08 23:30:00,29.9,26.5,30.11,West,270,0.0,1.1,87,0.00,,,0.00,WUHU216HW,2013-03-09 07:30:00,
2013-03-08 23:35:00,30.1,26.6,30.12,West,270,0.2,1.1,87,0.00,,,0.00,WUHU216HW,2013-03-09 07:35:00,
2013-03-08 23:40:00,30.1,26.6,30.12,West,270,0.0,0.9,87,0.00,,,0.00,WUHU216HW,2013-03-09 07:40:00,
2013-03-08 23:45:00,30.2,27.2,30.12,West,270,0.0,0.7,88,0.00,,,0.00,WUHU216HW,2013-03-09 07:45:00,
2013-03-08 23:50:00,30.4,27.4,30.12,West,270,0.0,0.7,88,0.00,,,0.00,WUHU216HW,2013-03-09 07:50:00,
2013-03-08 23:55:00,30.4,27.4,30.12,West,270,0.0,0.4,88,0.00,,,0.00,WUHU216HW,2013-03-09 07:55:00,